createdAt,value
2018-10-06T00:00:44.336Z,17.87
2018-10-06T00:03:12.720Z,18.13
2018-10-06T00:05:41.096Z,17.47
2018-10-06T00:08:09.490Z,16.87
2018-10-06T00:10:37.894Z,16.53
2018-10-06T00:13:06.361Z,14.90
2018-10-06T00:15:34.847Z,15.20
2018-10-06T00:18:03.308Z,15.03
2018-10-06T00:20:31.711Z,13.93
2018-10-06T00:23:01.066Z,12.73
2018-10-06T00:25:30.088Z,14.17
2018-10-06T00:27:58.474Z,12.20
2018-10-06T00:30:26.833Z,12.53
2018-10-06T00:32:55.216Z,12.90
2018-10-06T00:35:23.592Z,12.07
2018-10-06T00:37:51.986Z,11.13
2018-10-06T00:40:20.480Z,11.70
2018-10-06T00:42:48.871Z,12.70
2018-10-06T00:45:17.240Z,11.80
2018-10-06T00:47:45.705Z,10.63
2018-10-06T00:50:14.072Z,11.50
2018-10-06T00:52:42.472Z,10.73
2018-10-06T00:55:10.965Z,11.00
2018-10-06T00:57:39.344Z,10.77
2018-10-06T01:00:07.727Z,10.60
2018-10-06T01:02:36.107Z,10.70
2018-10-06T01:05:04.572Z,10.83
2018-10-06T01:07:33.019Z,9.37
2018-10-06T01:10:01.435Z,10.67
2018-10-06T01:12:29.845Z,10.13
2018-10-06T01:14:58.247Z,8.90
2018-10-06T01:17:26.621Z,10.30
2018-10-06T01:19:55.026Z,9.20
2018-10-06T01:22:23.566Z,9.07
2018-10-06T01:24:51.936Z,9.77
2018-10-06T01:27:20.315Z,9.70
2018-10-06T01:29:48.673Z,9.23
2018-10-06T01:32:17.153Z,9.93
2018-10-06T01:34:45.534Z,9.07
2018-10-06T01:37:13.911Z,9.13
2018-10-06T01:39:42.303Z,9.50
2018-10-06T01:42:10.683Z,9.07
2018-10-06T01:44:39.047Z,8.10
2018-10-06T01:47:08.014Z,8.83
2018-10-06T01:49:36.397Z,8.87
2018-10-06T01:52:04.786Z,8.33
2018-10-06T01:54:33.226Z,8.10
2018-10-06T01:57:01.596Z,7.83
2018-10-06T01:59:30.036Z,8.30
2018-10-06T02:01:58.436Z,8.40
2018-10-06T02:04:26.829Z,7.67
2018-10-06T02:06:56.245Z,7.80
2018-10-06T02:09:24.625Z,8.53
2018-10-06T02:11:53.669Z,9.00
2018-10-06T02:14:22.055Z,7.57
2018-10-06T02:16:50.807Z,7.77
2018-10-06T02:19:19.171Z,8.33
2018-10-06T02:21:47.616Z,7.33
2018-10-06T02:24:15.955Z,7.90
2018-10-06T02:26:44.343Z,6.83
2018-10-06T02:29:12.772Z,7.33
2018-10-06T02:31:41.104Z,7.13
2018-10-06T02:34:09.467Z,7.30
2018-10-06T02:36:37.881Z,7.20
2018-10-06T02:39:06.815Z,7.73
2018-10-06T02:41:35.200Z,7.00
2018-10-06T02:44:03.579Z,7.03
2018-10-06T02:46:31.936Z,7.70
2018-10-06T02:49:00.346Z,7.00
2018-10-06T02:51:28.730Z,7.00
2018-10-06T02:53:57.139Z,7.20
2018-10-06T02:56:25.520Z,6.53
2018-10-06T02:58:53.896Z,5.70
2018-10-06T03:01:27.620Z,6.50
2018-10-06T03:03:56.090Z,6.50
2018-10-06T03:06:24.443Z,6.87
2018-10-06T03:08:52.822Z,12.03
2018-10-06T03:11:21.232Z,11.93
2018-10-06T03:13:49.625Z,15.53
2018-10-06T03:16:18.031Z,17.10
2018-10-06T03:18:46.411Z,15.20
2018-10-06T03:21:14.813Z,14.77
2018-10-06T03:23:43.188Z,16.43
2018-10-06T03:26:11.578Z,16.13
2018-10-06T03:28:39.950Z,18.47
2018-10-06T03:31:08.368Z,17.30
2018-10-06T03:33:36.781Z,17.13
2018-10-06T03:36:05.830Z,16.70
2018-10-06T03:38:34.504Z,16.00
2018-10-06T03:41:02.894Z,15.20
2018-10-06T03:43:31.272Z,15.30
2018-10-06T03:45:59.758Z,15.57
2018-10-06T03:48:28.128Z,15.83
2018-10-06T03:50:56.560Z,15.17
2018-10-06T03:53:24.904Z,14.53
2018-10-06T03:55:53.302Z,14.73
2018-10-06T03:58:21.712Z,15.33
2018-10-06T04:00:50.099Z,13.57
2018-10-06T04:03:18.468Z,14.70
2018-10-06T04:05:46.907Z,13.50
2018-10-06T04:08:15.283Z,13.80
2018-10-06T04:10:43.671Z,14.03
2018-10-06T04:13:12.096Z,13.53
2018-10-06T04:15:40.495Z,13.20
2018-10-06T04:18:08.862Z,13.57
2018-10-06T04:20:37.259Z,13.80
2018-10-06T04:23:05.964Z,13.73
2018-10-06T04:25:34.323Z,14.10
2018-10-06T04:28:02.718Z,13.30
2018-10-06T04:30:31.128Z,13.90
2018-10-06T04:32:59.539Z,13.30
2018-10-06T04:35:27.930Z,12.37
2018-10-06T04:37:56.369Z,12.90
2018-10-06T04:40:24.743Z,12.77
2018-10-06T04:42:53.154Z,12.53
2018-10-06T04:45:21.569Z,13.20
2018-10-06T04:47:49.998Z,12.67
2018-10-06T04:50:18.379Z,11.60
2018-10-06T04:52:46.771Z,12.27
2018-10-06T04:55:15.169Z,11.90
2018-10-06T04:57:43.534Z,12.37
2018-10-06T05:00:11.927Z,12.00
2018-10-06T05:02:40.291Z,12.67
2018-10-06T05:05:08.663Z,11.90
2018-10-06T05:07:37.062Z,11.47
2018-10-06T05:10:05.520Z,11.90
2018-10-06T05:12:33.917Z,11.63
2018-10-06T05:15:02.317Z,10.53
2018-10-06T05:17:30.689Z,11.97
2018-10-06T05:19:59.068Z,11.07
2018-10-06T05:22:27.555Z,11.47
2018-10-06T05:24:55.948Z,11.03
2018-10-06T05:27:24.306Z,11.07
2018-10-06T05:29:52.712Z,9.10
2018-10-06T05:32:21.107Z,9.17
2018-10-06T05:34:49.491Z,9.07
2018-10-06T05:37:17.877Z,8.23
2018-10-06T05:39:46.264Z,8.90
2018-10-06T05:42:14.652Z,8.87
2018-10-06T05:44:43.043Z,9.03
2018-10-06T05:47:11.416Z,8.37
2018-10-06T05:49:39.787Z,8.93
2018-10-06T05:52:08.175Z,8.30
2018-10-06T05:54:36.576Z,7.70
2018-10-06T05:57:05.028Z,7.87
2018-10-06T05:59:33.432Z,7.93
2018-10-06T06:02:01.817Z,7.87
2018-10-06T06:04:30.308Z,7.83
2018-10-06T06:06:58.738Z,7.80
2018-10-06T06:09:27.116Z,7.93
2018-10-06T06:11:55.511Z,8.07
2018-10-06T06:14:23.864Z,7.90
2018-10-06T06:16:52.264Z,7.53
2018-10-06T06:19:20.623Z,7.27
2018-10-06T06:21:49.038Z,6.70
2018-10-06T06:24:17.411Z,7.10
2018-10-06T06:26:45.779Z,7.50
2018-10-06T06:29:14.174Z,7.57
2018-10-06T06:31:42.710Z,7.30
2018-10-06T06:34:11.306Z,8.10
2018-10-06T06:36:39.739Z,8.37
2018-10-06T06:39:08.916Z,12.87
2018-10-06T06:41:37.563Z,18.83
2018-10-06T06:44:06.227Z,23.83
2018-10-06T06:46:34.722Z,28.03
2018-10-06T06:49:03.231Z,30.80
2018-10-06T06:51:31.645Z,34.40
2018-10-06T06:53:59.995Z,32.90
2018-10-06T06:56:28.405Z,32.30
2018-10-06T06:58:56.839Z,34.53
2018-10-06T07:01:25.218Z,34.77
2018-10-06T07:03:53.622Z,35.30
2018-10-06T07:06:22.006Z,34.53
2018-10-06T07:08:50.410Z,75.70
2018-10-06T07:11:18.811Z,67.40
2018-10-06T07:13:47.259Z,88.97
2018-10-06T07:16:15.633Z,94.03
2018-10-06T07:18:44.069Z,84.07
2018-10-06T07:21:12.463Z,85.40
2018-10-06T07:23:40.855Z,82.00
2018-10-06T07:26:09.279Z,85.10
2018-10-06T07:28:37.684Z,91.40
2018-10-06T07:31:06.243Z,115.67
2018-10-06T07:33:34.727Z,117.77
2018-10-06T07:36:03.114Z,109.57
2018-10-06T07:38:31.591Z,100.77
2018-10-06T07:41:00.088Z,112.07
2018-10-06T07:43:28.512Z,93.00
2018-10-06T07:45:56.894Z,78.00
2018-10-06T07:48:25.291Z,82.93
2018-10-06T07:50:53.727Z,78.77
2018-10-06T07:53:22.134Z,75.10
2018-10-06T07:55:50.608Z,81.07
2018-10-06T07:58:19.078Z,68.23
2018-10-06T08:00:47.453Z,67.93
2018-10-06T08:03:15.859Z,65.57
2018-10-06T08:05:44.240Z,54.60
2018-10-06T08:08:12.607Z,69.83
2018-10-06T08:10:41.133Z,56.37
2018-10-06T08:13:09.570Z,66.23
2018-10-06T08:15:38.060Z,95.83
2018-10-06T08:18:06.665Z,94.63
2018-10-06T08:20:35.117Z,75.43
2018-10-06T08:23:03.547Z,75.67
2018-10-06T08:25:32.122Z,71.07
2018-10-06T08:28:00.541Z,60.53
2018-10-06T08:30:29.026Z,59.40
2018-10-06T08:32:57.439Z,60.00
2018-10-06T08:35:25.826Z,56.73
2018-10-06T08:37:54.244Z,59.67
2018-10-06T08:40:22.720Z,43.43
2018-10-06T08:42:51.168Z,28.67
2018-10-06T08:45:19.482Z,23.87
2018-10-06T08:47:47.906Z,29.10
2018-10-06T08:50:16.320Z,26.63
2018-10-06T08:52:44.835Z,25.93
2018-10-06T08:55:13.264Z,26.67
2018-10-06T08:57:41.732Z,25.83
2018-10-06T09:00:10.112Z,19.43
2018-10-06T09:02:38.515Z,18.93
2018-10-06T09:05:06.945Z,18.17
2018-10-06T09:07:35.328Z,16.17
2018-10-06T09:10:03.728Z,15.10
2018-10-06T09:12:32.203Z,26.60
2018-10-06T09:15:00.640Z,20.67
2018-10-06T09:17:29.019Z,17.93
2018-10-06T09:19:58.147Z,15.60
2018-10-06T09:22:26.556Z,14.70
2018-10-06T09:24:54.948Z,14.37
2018-10-06T09:27:23.415Z,13.63
2018-10-06T09:29:52.031Z,12.80
2018-10-06T09:32:20.455Z,13.27
2018-10-06T09:34:48.843Z,13.87
2018-10-06T09:37:17.392Z,17.03
2018-10-06T09:39:45.821Z,24.03
2018-10-06T09:42:14.781Z,23.67
2018-10-06T09:44:43.181Z,19.90
2018-10-06T09:47:11.563Z,19.60
2018-10-06T09:49:40.046Z,16.63
2018-10-06T09:52:08.436Z,14.97
2018-10-06T09:54:36.877Z,16.60
2018-10-06T09:57:05.265Z,14.37
2018-10-06T09:59:34.505Z,14.30
2018-10-06T10:02:08.897Z,14.60
2018-10-06T10:04:37.851Z,14.30
2018-10-06T10:07:06.434Z,23.83
2018-10-06T10:09:34.842Z,17.33
2018-10-06T10:12:03.278Z,18.57
2018-10-06T10:14:31.654Z,59.20
2018-10-06T10:17:00.183Z,27.70
2018-10-06T10:19:28.547Z,24.00
2018-10-06T10:21:57.037Z,21.47
2018-10-06T10:24:25.340Z,20.13
2018-10-06T10:26:53.764Z,17.70
2018-10-06T10:29:22.163Z,17.60
2018-10-06T10:31:50.556Z,17.07
2018-10-06T10:34:18.958Z,16.00
2018-10-06T10:36:47.374Z,15.13
2018-10-06T10:39:15.909Z,16.73
2018-10-06T10:41:44.331Z,15.03
2018-10-06T10:44:12.815Z,14.60
2018-10-06T10:46:41.460Z,14.63
2018-10-06T10:49:10.837Z,16.23
2018-10-06T10:51:39.246Z,85.73
2018-10-06T10:54:07.655Z,35.27
2018-10-06T10:56:36.095Z,23.47
2018-10-06T10:59:04.505Z,19.00
2018-10-06T11:01:32.891Z,17.57
2018-10-06T11:04:03.141Z,15.70
2018-10-06T11:06:31.603Z,17.90
2018-10-06T11:09:00.088Z,24.13
2018-10-06T11:11:28.504Z,23.03
2018-10-06T11:13:57.841Z,20.87
2018-10-06T11:16:26.259Z,19.90
2018-10-06T11:18:54.672Z,22.00
2018-10-06T11:21:23.096Z,23.57
2018-10-06T11:23:51.561Z,20.60
2018-10-06T11:26:20.063Z,21.40
2018-10-06T11:28:48.543Z,19.03
2018-10-06T11:31:17.309Z,21.30
2018-10-06T11:33:45.709Z,28.53
2018-10-06T11:36:14.195Z,22.43
2018-10-06T11:38:43.019Z,22.80
2018-10-06T11:41:11.457Z,17.30
2018-10-06T11:43:39.841Z,16.47
2018-10-06T11:46:08.337Z,15.87
2018-10-06T11:48:36.793Z,14.47
2018-10-06T11:51:05.214Z,13.47
2018-10-06T11:53:33.620Z,13.90
2018-10-06T11:56:02.126Z,13.10
2018-10-06T11:58:30.543Z,16.40
2018-10-06T12:00:58.979Z,26.83
2018-10-06T12:03:27.397Z,26.80
2018-10-06T12:05:56.013Z,28.23
2018-10-06T12:08:24.434Z,20.77
2018-10-06T12:10:52.855Z,17.87
2018-10-06T12:13:21.929Z,15.40
2018-10-06T12:15:50.421Z,13.23
2018-10-06T12:18:18.987Z,10.47
2018-10-06T12:20:47.400Z,8.93
2018-10-06T12:23:16.461Z,8.83
2018-10-06T12:25:44.922Z,6.70
2018-10-06T12:28:13.386Z,6.37
2018-10-06T12:30:41.797Z,7.27
2018-10-06T12:33:10.315Z,7.00
2018-10-06T12:35:38.829Z,7.37
2018-10-06T12:38:07.236Z,7.63
2018-10-06T12:40:35.755Z,7.37
2018-10-06T12:43:04.217Z,7.40
2018-10-06T12:45:32.643Z,6.87
2018-10-06T12:48:01.052Z,7.23
2018-10-06T12:50:29.562Z,7.10
2018-10-06T12:52:57.961Z,6.67
2018-10-06T12:55:26.403Z,6.33
2018-10-06T12:57:54.821Z,7.00
2018-10-06T13:00:23.228Z,7.00
2018-10-06T13:02:51.744Z,6.83
2018-10-06T13:05:20.167Z,7.03
2018-10-06T13:07:48.572Z,7.83
2018-10-06T13:10:17.007Z,10.30
2018-10-06T13:12:45.431Z,10.33
2018-10-06T13:15:13.827Z,9.93
2018-10-06T13:17:42.301Z,8.17
2018-10-06T13:20:10.748Z,7.90
2018-10-06T13:22:39.652Z,7.37
2018-10-06T13:25:08.640Z,7.23
2018-10-06T13:27:37.091Z,5.97
2018-10-06T13:30:05.499Z,6.00
2018-10-06T13:32:33.947Z,6.40
2018-10-06T13:35:02.337Z,6.40
2018-10-06T13:37:30.748Z,8.70
2018-10-06T13:39:59.248Z,8.63
2018-10-06T13:42:27.712Z,8.83
2018-10-06T13:44:56.143Z,9.57
2018-10-06T13:47:24.594Z,7.60
2018-10-06T13:49:53.453Z,7.00
2018-10-06T13:52:22.181Z,6.80
2018-10-06T13:54:50.584Z,5.93
2018-10-06T13:57:19.276Z,5.03
2018-10-06T13:59:47.806Z,4.77
2018-10-06T14:02:16.202Z,5.10
2018-10-06T14:04:44.706Z,4.20
2018-10-06T14:07:13.222Z,4.73
2018-10-06T14:09:41.764Z,4.50
2018-10-06T14:12:10.247Z,5.07
2018-10-06T14:14:38.639Z,4.60
2018-10-06T14:17:07.035Z,6.03
2018-10-06T14:19:35.597Z,5.77
2018-10-06T14:22:04.021Z,5.67
2018-10-06T14:24:32.423Z,5.00
2018-10-06T14:27:00.853Z,4.90
2018-10-06T14:29:29.254Z,5.00
2018-10-06T14:31:57.778Z,4.60
2018-10-06T14:34:26.195Z,4.73
2018-10-06T14:36:55.323Z,5.30
2018-10-06T14:39:23.811Z,4.87
2018-10-06T14:41:52.265Z,4.83
2018-10-06T14:44:20.976Z,4.77
2018-10-06T14:46:49.424Z,4.90
2018-10-06T14:49:17.953Z,4.80
2018-10-06T14:51:46.821Z,4.33
2018-10-06T14:54:15.508Z,4.77
2018-10-06T14:56:44.304Z,3.90
2018-10-06T14:59:12.847Z,4.20
2018-10-06T15:01:41.783Z,4.13
2018-10-06T15:04:10.202Z,4.27
2018-10-06T15:06:38.580Z,4.40
2018-10-06T15:09:08.545Z,4.37
2018-10-06T15:11:37.025Z,4.27
2018-10-06T15:14:05.953Z,4.30
2018-10-06T15:16:34.400Z,5.20
2018-10-06T15:19:02.799Z,4.67
2018-10-06T15:21:31.304Z,4.67
2018-10-06T15:23:59.677Z,4.90
2018-10-06T15:26:29.943Z,4.70
2018-10-06T15:29:03.236Z,4.47
2018-10-06T15:31:31.759Z,5.43
2018-10-06T15:34:00.296Z,6.20
2018-10-06T15:36:28.773Z,6.73
2018-10-06T15:38:57.266Z,8.27
2018-10-06T15:41:26.348Z,9.10
2018-10-06T15:43:54.796Z,8.93
2018-10-06T15:46:23.265Z,10.40
2018-10-06T15:48:51.695Z,10.70
2018-10-06T15:51:20.081Z,13.87
2018-10-06T15:53:48.603Z,15.70
2018-10-06T15:56:17.019Z,16.87
2018-10-06T15:58:45.422Z,15.00
2018-10-06T16:01:13.842Z,27.73
2018-10-06T16:03:42.453Z,21.70
2018-10-06T16:06:11.468Z,17.93
2018-10-06T16:08:39.981Z,15.73
2018-10-06T16:11:08.380Z,12.03
2018-10-06T16:13:36.845Z,12.00
2018-10-06T16:16:05.709Z,11.70
2018-10-06T16:18:34.159Z,11.20
2018-10-06T16:21:02.586Z,12.77
2018-10-06T16:23:32.177Z,11.73
2018-10-06T16:26:00.627Z,10.70
2018-10-06T16:28:29.357Z,11.03
2018-10-06T16:30:58.464Z,10.77
2018-10-06T16:33:27.127Z,11.20
2018-10-06T16:35:55.829Z,10.53
2018-10-06T16:38:24.229Z,10.03
2018-10-06T16:40:52.735Z,9.97
2018-10-06T16:43:21.324Z,10.77
2018-10-06T16:45:50.060Z,11.20
2018-10-06T16:48:18.648Z,12.77
2018-10-06T16:50:47.207Z,23.03
2018-10-06T16:53:15.596Z,21.60
2018-10-06T16:55:43.999Z,20.23
2018-10-06T16:58:12.573Z,20.40
2018-10-06T17:00:41.230Z,20.87
2018-10-06T17:03:09.848Z,19.50
2018-10-06T17:05:38.908Z,19.17
2018-10-06T17:08:07.315Z,16.90
2018-10-06T17:10:36.011Z,59.60
2018-10-06T17:13:04.589Z,62.83
2018-10-06T17:15:33.121Z,55.37
2018-10-06T17:18:02.316Z,38.20
2018-10-06T17:20:30.888Z,41.33
2018-10-06T17:22:59.329Z,46.97
2018-10-06T17:25:28.096Z,52.60
2018-10-06T17:27:56.491Z,40.30
2018-10-06T17:30:25.614Z,33.63
2018-10-06T17:32:54.088Z,34.07
2018-10-06T17:35:22.609Z,35.07
2018-10-06T17:37:51.564Z,34.83
2018-10-06T17:40:20.268Z,33.47
2018-10-06T17:42:48.893Z,32.67
2018-10-06T17:45:17.483Z,32.37
2018-10-06T17:47:45.954Z,29.67
2018-10-06T17:50:14.583Z,30.90
2018-10-06T17:52:43.083Z,29.70
2018-10-06T17:55:11.629Z,29.47
2018-10-06T17:57:40.324Z,28.30
2018-10-06T18:00:08.699Z,28.47
2018-10-06T18:02:37.310Z,26.33
2018-10-06T18:05:05.722Z,25.93
2018-10-06T18:07:34.158Z,24.77
2018-10-06T18:10:02.582Z,25.20
2018-10-06T18:12:31.179Z,23.17
2018-10-06T18:14:59.575Z,22.37
2018-10-06T18:17:28.037Z,22.00
2018-10-06T18:19:56.425Z,21.83
2018-10-06T18:22:24.818Z,22.17
2018-10-06T18:24:53.230Z,22.43
2018-10-06T18:27:21.831Z,20.60
2018-10-06T18:29:50.166Z,21.80
2018-10-06T18:32:18.591Z,22.33
2018-10-06T18:34:47.025Z,22.43
2018-10-06T18:37:15.492Z,21.43
2018-10-06T18:39:43.929Z,20.60
2018-10-06T18:42:12.475Z,19.93
2018-10-06T18:44:40.874Z,20.67
2018-10-06T18:47:09.364Z,19.67
2018-10-06T18:49:37.752Z,19.77
2018-10-06T18:52:06.170Z,19.63
2018-10-06T18:54:34.584Z,23.30
2018-10-06T18:57:03.083Z,46.27
2018-10-06T18:59:31.495Z,49.07
2018-10-06T19:01:59.971Z,57.97
2018-10-06T19:04:30.964Z,59.93
2018-10-06T19:06:59.399Z,53.37
2018-10-06T19:09:27.795Z,51.80
2018-10-06T19:11:56.197Z,45.77
2018-10-06T19:14:24.663Z,49.40
2018-10-06T19:16:53.153Z,56.63
2018-10-06T19:19:27.146Z,62.87
2018-10-06T19:22:00.465Z,56.17
2018-10-06T19:24:33.536Z,44.80
2018-10-06T19:27:04.361Z,44.27
2018-10-06T19:29:36.147Z,43.30
2018-10-06T19:32:04.567Z,40.47
2018-10-06T19:34:33.041Z,41.67
2018-10-06T19:37:01.528Z,39.83
2018-10-06T19:39:29.965Z,38.00
2018-10-06T19:41:58.406Z,36.63
2018-10-06T19:44:26.813Z,37.00
2018-10-06T19:46:55.467Z,35.40
2018-10-06T19:49:23.945Z,34.37
2018-10-06T19:51:52.342Z,35.13
2018-10-06T19:54:20.759Z,35.87
2018-10-06T19:56:49.152Z,34.20
2018-10-06T19:59:18.141Z,33.97
2018-10-06T20:01:46.546Z,30.97
2018-10-06T20:04:15.122Z,29.90
2018-10-06T20:06:43.552Z,30.53
2018-10-06T20:09:12.309Z,32.57
2018-10-06T20:11:40.832Z,32.33
2018-10-06T20:14:09.222Z,30.53
2018-10-06T20:16:37.629Z,31.50
2018-10-06T20:19:06.052Z,32.47
2018-10-06T20:21:34.604Z,32.03
2018-10-06T20:24:03.227Z,31.97
2018-10-06T20:26:31.829Z,32.87
2018-10-06T20:29:00.244Z,29.00
2018-10-06T20:31:28.662Z,30.57
2018-10-06T20:33:58.025Z,29.43
2018-10-06T20:36:26.420Z,30.13
2018-10-06T20:38:54.874Z,30.93
2018-10-06T20:41:23.386Z,34.83
2018-10-06T20:43:51.816Z,46.07
2018-10-06T20:46:20.272Z,48.47
2018-10-06T20:48:48.659Z,45.20
2018-10-06T20:51:17.267Z,39.13
2018-10-06T20:53:45.646Z,37.33
2018-10-06T20:56:14.081Z,26.17
2018-10-06T20:58:42.456Z,24.73
2018-10-06T21:01:10.860Z,22.80
2018-10-06T21:03:39.240Z,28.83
2018-10-06T21:06:07.622Z,24.20
2018-10-06T21:08:35.995Z,70.03
2018-10-06T21:11:04.465Z,98.90
2018-10-06T21:13:32.868Z,74.57
2018-10-06T21:16:01.355Z,55.33
2018-10-06T21:18:30.188Z,50.67
2018-10-06T21:20:59.127Z,43.23
2018-10-06T21:23:27.547Z,38.80
2018-10-06T21:25:55.949Z,38.43
2018-10-06T21:28:24.464Z,37.10
2018-10-06T21:30:52.947Z,34.73
2018-10-06T21:33:21.567Z,29.20
2018-10-06T21:35:50.090Z,29.90
2018-10-06T21:38:18.489Z,28.27
2018-10-06T21:40:46.894Z,27.13
2018-10-06T21:43:15.358Z,26.87
2018-10-06T21:45:43.739Z,25.87
2018-10-06T21:48:12.169Z,24.50
2018-10-06T21:50:40.696Z,24.87
2018-10-06T21:53:09.245Z,26.83
2018-10-06T21:55:37.684Z,57.80
2018-10-06T21:58:06.112Z,41.73
2018-10-06T22:00:34.722Z,39.17
2018-10-06T22:03:03.122Z,43.03
2018-10-06T22:05:31.515Z,43.83
2018-10-06T22:07:59.924Z,46.10
2018-10-06T22:10:28.356Z,47.83
2018-10-06T22:12:56.771Z,48.37
2018-10-06T22:15:25.156Z,46.00
2018-10-06T22:17:53.563Z,46.70
2018-10-06T22:20:22.383Z,45.60
2018-10-06T22:22:50.972Z,44.67
2018-10-06T22:25:19.413Z,44.20
2018-10-06T22:27:47.820Z,44.27
2018-10-06T22:30:16.220Z,44.80
2018-10-06T22:32:44.628Z,43.30
2018-10-06T22:35:13.064Z,44.00
2018-10-06T22:37:41.467Z,42.60
2018-10-06T22:40:09.873Z,43.13
2018-10-06T22:42:38.275Z,40.37
2018-10-06T22:45:06.863Z,41.10
2018-10-06T22:47:35.313Z,39.10
2018-10-06T22:50:03.790Z,41.13
2018-10-06T22:52:32.393Z,49.37
2018-10-06T22:55:00.856Z,52.73
2018-10-06T22:57:29.346Z,54.77
2018-10-06T22:59:57.744Z,54.83
2018-10-06T23:02:26.277Z,55.43
2018-10-06T23:04:54.692Z,52.97
2018-10-06T23:07:23.311Z,52.93
2018-10-06T23:09:51.723Z,51.40
2018-10-06T23:12:20.132Z,53.47
2018-10-06T23:14:48.535Z,54.13
2018-10-06T23:17:17.613Z,52.23
2018-10-06T23:19:46.126Z,49.80
2018-10-06T23:22:14.521Z,49.83
2018-10-06T23:24:42.957Z,50.10
2018-10-06T23:27:11.481Z,48.83
2018-10-06T23:29:39.919Z,49.63
2018-10-06T23:32:08.299Z,47.40
2018-10-06T23:34:36.747Z,48.83
2018-10-06T23:37:05.183Z,49.07
2018-10-06T23:39:33.603Z,46.17
2018-10-06T23:42:02.096Z,46.00
2018-10-06T23:44:30.471Z,44.77
2018-10-06T23:46:58.954Z,46.50
2018-10-06T23:49:27.586Z,55.63
2018-10-06T23:51:55.988Z,65.17
2018-10-06T23:54:24.380Z,63.23
2018-10-06T23:56:52.963Z,62.53
2018-10-06T23:59:21.518Z,63.47
